Aviation Digital Data Service (ADDS)

Output produced by METARs form (2246 UTC 20 January 2021)
found at http://aviationweather.gov/metar/data/
 
METAR text: KCVH 202235Z AUTO VRB05KT 10SM CLR 22/M08 A3004 RMK A01
Conditions at: KCVH (HOLLISTER MUNI , CA, US) observed 2235 UTC 20 January 2021
Temperature: 22.0°C (72°F)
Dewpoint: -8.0°C (18°F) [RH = 13%]
Pressure (altimeter): 30.04 inches Hg (1017.4 mb)
Winds: variable direction winds at 6 MPH (5 knots; 2.6 m/s)
Visibility: 10 or more miles (16+ km)
Ceiling: at least 12,000 feet AGL
Clouds: sky clear below 12,000 feet AGL
Weather: automated observation with no human augmentation;
there may or may not be significant weather present at this time